• Join FlightAware (Why Join?)
  • Login
  • US Flag 
06:00PM EDT


 

Airport Tracker/Info


-or-


 

Live Flight TrackerFlight Track Log ✈ N87SA ✈ 21-Apr-2013 ✈ TNCE / EUX - TNCB / BON

Flight Track Log - Related Links

Times and Time Zones

All times are in EDT time to prevent confusion due to time zone crossing. See the N87SA flight status page for this flight to view local times or setup timezone preferences in your user account.

Time Position Orientation Groundspeed Altitude Reporting Facility
EDT Latitude Longitude Course Direction KTS MPH feet Rate Location/Type
06:31PM 17.3667 -63.3833 251° West 170 196 13,100  Level San Juan Center
06:32PM 17.3500 -63.4333 251° West 190 219 14,100 900 Climbing San Juan Center
06:33PM 17.3333 -63.4833 251° West 180 207 15,000 900 Climbing San Juan Center
06:34PM 17.3167 -63.5333 251° West 180 207 16,000 960 Climbing San Juan Center
06:35PM 17.3000 -63.5833 251° West 170 196 17,000 840 Climbing San Juan Center
06:36PM 17.2833 -63.6333 251° West 190 219 17,700 720 Climbing San Juan Center
06:37PM 17.2667 -63.6833 251° West 170 196 18,500 780 Climbing San Juan Center
06:38PM 17.2500 -63.7333 251° West 190 219 19,300 660 Climbing San Juan Center
06:39PM 17.2333 -63.7667 242° Southwest 180 207 19,900 540 Climbing San Juan Center
06:40PM 17.2000 -63.8333 242° Southwest 180 207 20,500 600 Climbing San Juan Center
06:41PM 17.1833 -63.8833 251° West 180 207 21,200 600 Climbing San Juan Center
06:42PM 17.1667 -63.9333 251° West 190 219 21,700 540 Climbing San Juan Center
06:43PM 17.1500 -63.9833 251° West 190 219 22,300 600 Climbing San Juan Center
06:44PM 17.1333 -64.0333 251° West 180 207 23,000 600 Climbing San Juan Center
06:45PM 17.1167 -64.0833 251° West 190 219 23,600 480 Climbing San Juan Center
06:46PM 17.1000 -64.1333 251° West 190 219 24,000 180 Climbing San Juan Center
06:47PM 17.0833 -64.1833 251° West 190 219 24,000  Level San Juan Center
06:48PM 17.0500 -64.2500 242° Southwest 220 253 24,000  Level San Juan Center
06:49PM 17.0333 -64.3167 255° West 230 265 24,000  Level San Juan Center
06:50PM 17.0167 -64.3667 251° West 230 265 24,000  Level San Juan Center
06:51PM 16.9833 -64.4333 242° Southwest 220 253 24,000  Level San Juan Center
06:52PM 16.9667 -64.4833 251° West 230 265 24,000  Level San Juan Center
06:53PM 16.9333 -64.5500 242° Southwest 230 265 24,000  Level San Juan Center
06:54PM 16.9167 -64.6167 255° West 220 253 24,000  Level San Juan Center
06:55PM 16.9000 -64.6833 255° West 220 253 24,000  Level San Juan Center
06:56PM 16.8667 -64.7333 235° Southwest 220 253 24,000  Level San Juan Center
06:57PM 16.8500 -64.8000 255° West 230 265 24,000  Level San Juan Center
06:58PM 16.8333 -64.8500 251° West 210 242 24,000  Level San Juan Center
06:59PM 16.8000 -64.9167 242° Southwest 210 242 24,000  Level San Juan Center
07:00PM 16.7833 -64.9667 251° West 220 253 24,000  Level San Juan Center
07:01PM 16.7667 -65.0333 255° West 220 253 24,000  Level San Juan Center
07:02PM 16.7500 -65.0833 251° West 220 253 24,000  Level San Juan Center
07:03PM 16.7167 -65.1500 242° Southwest 230 265 24,000  Level San Juan Center
07:04PM 16.7000 -65.2000 251° West 180 207 24,000  Level San Juan Center
07:05PM 16.6833 -65.2500 251° West 220 253 24,000  Level San Juan Center
07:06PM 16.6500 -65.3167 242° Southwest 220 253 24,000  Level San Juan Center
07:07PM 16.6333 -65.3833 255° West 220 253 24,000  Level San Juan Center
07:08PM 16.6167 -65.4333 251° West 220 253 24,000  Level San Juan Center
07:09PM 16.5833 -65.5000 242° Southwest 230 265 24,000  Level San Juan Center
07:10PM 16.5667 -65.5667 255° West 220 253 24,000  Level San Juan Center
07:11PM 16.5333 -65.6167 235° Southwest 230 265 24,000  Level San Juan Center
07:12PM 16.5167 -65.6833 255° West 220 253 24,000  Level San Juan Center
07:13PM 16.5000 -65.7500 255° West 230 265 24,000  Level San Juan Center
07:14PM 16.4667 -65.8000 235° Southwest 220 253 24,000  Level San Juan Center
07:15PM 16.4500 -65.8667 255° West 220 253 24,000  Level San Juan Center
07:16PM 16.4333 -65.9167 251° West 220 253 24,000  Level San Juan Center
07:17PM 16.4000 -65.9833 242° Southwest 220 253 24,000  Level San Juan Center
07:18PM 16.3833 -66.0333 251° West 220 253 24,000  Level San Juan Center
07:19PM 16.3500 -66.1000 242° Southwest 220 253 24,000  Level San Juan Center
07:20PM 16.3333 -66.1667 255° West 220 253 24,000  Level San Juan Center
07:21PM 16.3167 -66.2167 251° West 220 253 24,000  Level San Juan Center
07:22PM 16.2833 -66.2833 242° Southwest 220 253 24,000  Level San Juan Center
07:24PM 16.2333 -66.4000 246° West 220 253 24,000  Level San Juan Center
07:25PM 16.2167 -66.4500 251° West 220 253 24,000  Level San Juan Center
07:26PM 16.2000 -66.5167 255° West 210 242 24,000  Level San Juan Center
07:27PM 16.1667 -66.5833 243° Southwest 210 242 24,000  Level San Juan Center
07:28PM 16.1500 -66.6333 251° West 230 265 24,000  Level San Juan Center
07:29PM 16.1167 -66.7000 243° Southwest 230 265 24,000  Level San Juan Center
07:30PM 16.1000 -66.7667 255° West 220 253 24,000  Level San Juan Center
07:31PM 16.0833 -66.8167 251° West 230 265 24,000  Level San Juan Center
07:32PM 16.0500 -66.8833 243° Southwest 220 253 24,000  Level San Juan Center
07:34PM 16.0333 -66.9333 251° West 220 253 24,000  Level San Juan Center
07:35PM 16.0000 -67.0000 243° Southwest 230 265 24,000  Level San Juan Center
07:36PM 15.9833 -67.0667 255° West 230 265 24,000  Level San Juan Center
07:37PM 15.9500 -67.1167 235° Southwest 220 253 24,000  Level San Juan Center
07:38PM 15.9333 -67.1833 255° West 230 265 24,000  Level San Juan Center
07:39PM 15.9167 -67.2500 255° West 230 265 24,000  Level San Juan Center
07:40PM 15.8833 -67.3167 243° Southwest 230 265 24,000  Level San Juan Center
07:42PM 15.8167 -67.4167 235° Southwest 240 276 24,000  Level San Juan Center
07:43PM 15.7333 -67.4167 180° South 260 299 24,000  Level San Juan Center
07:46PM 15.6160 -67.4775 207° Southwest  Level FlightAware Approximate
07:53PM 15.1946 -67.6952 207° Southwest  Level FlightAware Approximate
07:54PM 15.1344 -67.7262 206° Southwest  Level FlightAware Approximate
07:55PM 15.0742 -67.7573 206° Southwest  Level FlightAware Approximate
07:56PM 15.0140 -67.7883 206° Southwest  Level FlightAware Approximate
07:57PM 14.9537 -67.8193 206° Southwest  Level FlightAware Approximate
07:58PM 14.8935 -67.8502 206° Southwest  Level FlightAware Approximate
07:59PM 14.8333 -67.8812 206° Southwest  Level FlightAware Approximate
08:00PM 14.7730 -67.9121 206° Southwest  Level FlightAware Approximate
08:01PM 14.7128 -67.9430 206° Southwest  Level FlightAware Approximate
08:02PM 14.6474 -67.9753 203° Southwest  Level FlightAware Approximate
08:03PM 14.5857 -68.0030 203° Southwest  Level FlightAware Approximate
08:04PM 14.5240 -68.0307 203° Southwest  Level FlightAware Approximate
08:05PM 14.4623 -68.0584 203° Southwest  Level FlightAware Approximate
08:06PM 14.4006 -68.0861 203° Southwest  Level FlightAware Approximate
08:07PM 14.3389 -68.1137 203° Southwest  Level FlightAware Approximate
08:08PM 14.2773 -68.1413 203° Southwest  Level FlightAware Approximate
08:09PM 14.2156 -68.1689 203° Southwest  Level FlightAware Approximate
08:10PM 14.1512 -68.1845 182° South  Level FlightAware Approximate
08:11PM 14.0840 -68.1869 182° South  Level FlightAware Approximate
08:12PM 14.0168 -68.1893 182° South  Level FlightAware Approximate
08:13PM 13.9496 -68.1917 182° South  Level FlightAware Approximate
08:14PM 13.8824 -68.1941 182° South  Level FlightAware Approximate
08:15PM 13.8152 -68.1965 182° South  Level FlightAware Approximate
08:16PM 13.7480 -68.1989 182° South  Level FlightAware Approximate
08:17PM 13.6808 -68.2021 183° South  Level FlightAware Approximate
08:18PM 13.6136 -68.2061 183° South  Level FlightAware Approximate
08:19PM 13.5465 -68.2100 183° South  Level FlightAware Approximate
08:20PM 13.4794 -68.2140 183° South  Level FlightAware Approximate
08:21PM 13.4122 -68.2173 182° South  Level FlightAware Approximate
08:22PM 13.3450 -68.2195 182° South  Level FlightAware Approximate
08:23PM 13.2777 -68.2217 182° South  Level FlightAware Approximate
08:24PM 13.2105 -68.2239 182° South  Level FlightAware Approximate
08:25PM 13.1433 -68.2260 182° South  Level FlightAware Approximate
08:26PM 13.0761 -68.2282 182° South  Level FlightAware Approximate
08:27PM 13.0089 -68.2304 182° South  Level FlightAware Approximate
08:28PM 12.9416 -68.2325 182° South  Level FlightAware Approximate
08:29PM 12.8746 -68.2375 186° South  Level FlightAware Approximate
08:30PM 12.8077 -68.2442 186° South  Level FlightAware Approximate
08:31PM 12.7407 -68.2500 180° South  Level FlightAware Approximate
08:32PM 12.6735 -68.2500 180° South  Level FlightAware Approximate
08:33PM 12.6062 -68.2500 180° South  Level FlightAware Approximate
08:34PM 12.5390 -68.2500 180° South  Level FlightAware Approximate
08:35PM 12.4720 -68.2561 186° South  Level FlightAware Approximate
08:36PM 12.4051 -68.2628 186° South  Level FlightAware Approximate
08:37PM 12.3380 -68.2667 180° South  Level FlightAware Approximate
08:38PM 12.2707 -68.2667 180° South  Level FlightAware Approximate
08:39PM 12.2035 -68.2667 180° South  Level FlightAware Approximate
08:40PM 12.1362 -68.2667 180° South  Level FlightAware Approximate
08:41PM 12.1310 -68.2685 180° South  Level Estimated
08:42PM 12.1310 -68.2685 180° South  Level Estimated
08:43PM 12.1310 -68.2685 180° South  Level Estimated
08:44PM 12.1310 -68.2685 180° South  Level Estimated
08:45PM 12.1310 -68.2685 180° South  Level Estimated
08:46PM 12.1310 -68.2685 180° South  Level Estimated
08:47PM 12.1310 -68.2685 180° South  Level Estimated
08:48PM 12.1310 -68.2685 180° South  Level Estimated
08:49PM 12.1310 -68.2685 180° South  Level Estimated
08:50PM 12.1310 -68.2685 180° South  Level Estimated
08:51PM 12.1310 -68.2685 180° South  Level Estimated
08:52PM 12.1310 -68.2685 180° South  Level Estimated
08:53PM 12.1310 -68.2685 180° South  Level Estimated
08:54PM 12.1310 -68.2685 180° South  Level Estimated
08:55PM 12.1310 -68.2685 180° South  Level Estimated
08:56PM 12.1310 -68.2685 180° South  Level Estimated